Time;durP1;ratioP1;P1;durP2;ratioP2;P2;SDS_P1;SDS_P2;PMS_P1;PMS_P2;Temp;Humidity;BMP_temperature;BMP_pressure;BME280_temperature;BME280_humidity;BME280_pressure;Samples;Min_cycle;Max_cycle;Signal;HPM_P1;HPM_P2
2022/06/16 00:01:07;;;;;;;6.32;3.47;;;19.70;99.90;;;;;;5076008;28;20040;-67
2022/06/16 00:03:33;;;;;;;4.88;4.00;;;19.60;99.90;;;;;;5076432;28;20113;-67
2022/06/16 00:05:59;;;;;;;6.82;3.92;;;19.50;99.90;;;;;;5076371;28;20037;-66
2022/06/16 00:08:24;;;;;;;4.07;3.67;;;19.40;99.90;;;;;;5075652;28;20028;-67
2022/06/16 00:13:37;;;;;;;9.77;4.03;;;19.30;99.90;;;;;;5076328;28;20052;-66
2022/06/16 00:16:05;;;;;;;7.43;4.20;;;19.30;99.90;;;;;;5076663;28;20107;-66
2022/06/16 00:18:32;;;;;;;5.97;3.95;;;19.40;99.90;;;;;;5076332;28;20024;-67
2022/06/16 00:20:57;;;;;;;4.65;3.75;;;19.30;99.90;;;;;;5078930;28;20273;-66
2022/06/16 00:23:24;;;;;;;5.50;3.55;;;19.20;99.90;;;;;;5079888;28;20021;-67
2022/06/16 00:25:49;;;;;;;8.57;3.83;;;19.10;99.90;;;;;;5079878;28;20031;-66
2022/06/16 00:28:15;;;;;;;7.40;4.13;;;19.10;99.90;;;;;;5079807;28;20020;-66
2022/06/16 00:30:42;;;;;;;7.43;4.05;;;19.00;99.90;;;;;;5079065;28;20036;-66
2022/06/16 00:33:08;;;;;;;6.05;3.70;;;19.00;99.90;;;;;;5079737;28;20089;-67
2022/06/16 00:35:34;;;;;;;7.03;4.55;;;18.90;99.90;;;;;;5079696;28;20036;-67
2022/06/16 00:38:00;;;;;;;7.45;4.55;;;18.90;99.90;;;;;;5079640;28;20032;-66
2022/06/16 00:40:27;;;;;;;6.25;4.38;;;18.90;99.90;;;;;;5078813;28;20037;-67
2022/06/16 00:42:53;;;;;;;6.07;4.13;;;18.90;99.90;;;;;;5079854;28;20036;-66
2022/06/16 00:45:47;;;;;;;6.75;4.35;;;18.80;99.90;;;;;;5079508;28;20051;-67
2022/06/16 00:48:35;;;;;;;6.47;4.35;;;18.70;99.90;;;;;;5078707;28;20427;-66
2022/06/16 00:51:09;;;;;;;7.40;4.28;;;18.60;99.90;;;;;;5079350;28;20024;-67
2022/06/16 00:53:37;;;;;;;7.15;4.28;;;18.60;99.90;;;;;;5079306;28;20063;-67
2022/06/16 00:56:04;;;;;;;5.32;4.00;;;18.50;99.90;;;;;;5079468;28;20396;-66
2022/06/16 00:58:31;;;;;;;5.38;4.10;;;18.40;99.90;;;;;;5078661;28;20412;-67
2022/06/16 01:00:57;;;;;;;9.18;4.25;;;18.40;99.90;;;;;;5079221;28;20335;-68
2022/06/16 01:06:24;;;;;;;6.65;4.55;;;18.30;99.90;;;;;;5079254;28;20404;-68
2022/06/16 01:08:59;;;;;;;7.63;4.38;;;18.30;99.90;;;;;;5078379;28;20388;-69
2022/06/16 01:14:35;;;;;;;6.43;4.55;;;18.30;99.90;;;;;;5078641;28;20044;-67
2022/06/16 01:17:11;;;;;;;6.80;4.35;;;18.20;99.90;;;;;;5079019;28;20495;-67
2022/06/16 01:19:37;;;;;;;4.85;4.32;;;18.20;99.90;;;;;;5078343;28;20032;-67
2022/06/16 01:22:48;;;;;;;10.10;4.85;;;18.20;99.90;;;;;;5078806;28;20033;-68
2022/06/16 01:25:35;;;;;;;5.60;4.70;;;18.20;99.90;;;;;;5060737;28;20339;-65
2022/06/16 01:28:01;;;;;;;7.30;4.43;;;18.10;99.90;;;;;;5078801;28;20071;-66
2022/06/16 01:30:48;;;;;;;7.03;4.40;;;18.10;99.90;;;;;;5078718;28;20036;-66
2022/06/16 01:33:24;;;;;;;6.45;4.78;;;18.00;99.90;;;;;;5078321;28;20341;-66
2022/06/16 01:36:19;;;;;;;7.03;4.90;;;18.00;99.90;;;;;;5061179;28;20101;-66
2022/06/16 01:38:51;;;;;;;7.90;4.50;;;18.00;99.90;;;;;;5077747;28;20033;-66
2022/06/16 01:41:27;;;;;;;7.25;4.90;;;17.90;99.90;;;;;;5077692;28;20039;-66
2022/06/16 01:44:31;;;;;;;8.30;4.95;;;17.90;99.90;;;;;;5077768;28;20032;-67
2022/06/16 01:47:05;;;;;;;5.90;4.68;;;17.90;99.90;;;;;;5074563;28;20093;-67
2022/06/16 01:49:37;;;;;;;6.72;4.60;;;17.80;99.90;;;;;;5077531;28;20028;-67
2022/06/16 01:52:36;;;;;;;6.45;4.68;;;17.80;99.90;;;;;;5078147;28;20289;-66
2022/06/16 01:55:11;;;;;;;7.15;5.18;;;17.80;99.90;;;;;;5077473;28;20119;-66
2022/06/16 01:57:53;;;;;;;8.32;4.95;;;17.80;99.90;;;;;;5077365;28;20446;-66
2022/06/16 02:00:22;;;;;;;6.28;5.22;;;17.70;99.90;;;;;;5077246;28;20127;-66
2022/06/16 02:03:36;;;;;;;7.72;4.80;;;17.70;99.90;;;;;;5077260;28;20032;-66
2022/06/16 02:06:31;;;;;;;8.13;4.93;;;17.60;99.90;;;;;;5077199;28;20028;-67
2022/06/16 02:09:09;;;;;;;7.20;5.25;;;17.60;99.90;;;;;;5076591;28;20036;-67
2022/06/16 02:11:36;;;;;;;6.55;4.43;;;17.60;99.90;;;;;;5078283;28;20037;-67
2022/06/16 02:14:25;;;;;;;8.45;5.55;;;17.50;99.90;;;;;;5078070;28;20021;-67
2022/06/16 02:16:56;;;;;;;8.93;5.15;;;17.50;99.90;;;;;;5077184;28;20093;-67
2022/06/16 02:19:27;;;;;;;5.38;4.70;;;17.50;99.90;;;;;;5076943;28;20064;-67
2022/06/16 02:21:54;;;;;;;5.35;4.85;;;17.50;99.90;;;;;;5077449;28;20031;-67
2022/06/16 02:24:26;;;;;;;8.52;4.60;;;17.50;99.90;;;;;;5076798;28;20120;-67
2022/06/16 02:26:55;;;;;;;6.28;4.82;;;17.40;99.90;;;;;;5077278;28;20064;-67
2022/06/16 02:29:30;;;;;;;6.05;4.78;;;17.40;99.90;;;;;;5076764;28;20423;-67
2022/06/16 02:32:04;;;;;;;7.85;4.72;;;17.40;99.90;;;;;;5076740;28;20062;-67
2022/06/16 02:34:30;;;;;;;7.32;4.60;;;17.30;99.90;;;;;;5076641;28;20079;-67
2022/06/16 02:37:20;;;;;;;6.28;4.25;;;17.30;99.90;;;;;;5077359;28;20032;-67
2022/06/16 02:39:59;;;;;;;7.55;4.70;;;17.20;99.90;;;;;;5077285;28;20033;-67
2022/06/16 02:42:37;;;;;;;9.13;4.85;;;17.20;99.90;;;;;;5076379;28;20086;-67
2022/06/16 02:45:37;;;;;;;7.55;4.68;;;17.20;99.90;;;;;;5076164;28;20333;-67
2022/06/16 02:48:03;;;;;;;7.55;4.63;;;17.10;99.90;;;;;;5077164;28;20157;-67
2022/06/16 02:50:47;;;;;;;6.78;4.60;;;17.10;99.90;;;;;;5076461;28;20423;-66
2022/06/16 02:53:45;;;;;;;8.18;4.82;;;17.00;99.90;;;;;;5076235;28;20351;-67
2022/06/16 02:56:23;;;;;;;8.18;4.40;;;17.10;99.90;;;;;;5077045;28;20028;-66
2022/06/16 02:58:49;;;;;;;6.45;5.07;;;17.00;99.90;;;;;;5076431;28;20205;-66
2022/06/16 03:01:17;;;;;;;9.07;5.00;;;17.00;99.90;;;;;;5076980;28;20392;-67
2022/06/16 03:04:00;;;;;;;7.00;5.20;;;17.00;99.90;;;;;;5076284;28;20126;-66
2022/06/16 03:06:27;;;;;;;5.45;4.95;;;16.90;99.90;;;;;;5076561;28;20024;-66
2022/06/16 03:08:53;;;;;;;6.40;5.25;;;16.80;99.90;;;;;;5077504;28;20067;-66
2022/06/16 03:11:18;;;;;;;6.47;5.18;;;16.70;99.90;;;;;;5076177;28;20032;-66
2022/06/16 03:13:44;;;;;;;5.93;4.85;;;16.70;99.90;;;;;;5076968;28;20033;-66
2022/06/16 03:16:23;;;;;;;6.05;5.05;;;16.60;99.90;;;;;;5076119;28;20112;-66
2022/06/16 03:18:49;;;;;;;6.45;5.00;;;16.60;99.90;;;;;;5077168;28;20289;-67
2022/06/16 03:21:15;;;;;;;9.45;5.20;;;16.60;99.90;;;;;;5075964;28;20043;-66
2022/06/16 03:23:42;;;;;;;6.20;5.15;;;16.60;99.90;;;;;;5076842;28;20033;-68
2022/06/16 03:26:08;;;;;;;7.05;5.47;;;16.60;99.90;;;;;;5075993;28;20042;-66
2022/06/16 03:28:35;;;;;;;6.00;5.40;;;16.60;99.90;;;;;;5077041;28;20024;-66
2022/06/16 03:31:07;;;;;;;11.40;4.90;;;16.60;99.90;;;;;;5076021;28;20048;-67
2022/06/16 03:33:33;;;;;;;8.68;5.70;;;16.50;99.90;;;;;;5077063;28;20033;-67
2022/06/16 03:35:59;;;;;;;6.38;5.07;;;16.50;99.90;;;;;;5075875;28;20054;-66
2022/06/16 03:40:55;;;;;;;10.07;5.30;;;16.40;99.90;;;;;;5076383;28;20330;-66
2022/06/16 03:43:21;;;;;;;6.68;5.00;;;16.50;99.90;;;;;;5077278;28;20119;-66
2022/06/16 03:45:50;;;;;;;7.90;5.50;;;16.50;99.90;;;;;;5075692;28;20043;-66
2022/06/16 03:48:17;;;;;;;7.93;5.28;;;16.50;99.90;;;;;;5075787;28;20054;-67
2022/06/16 03:50:45;;;;;;;5.82;4.95;;;16.50;99.90;;;;;;5075784;28;20039;-67
2022/06/16 03:53:14;;;;;;;6.88;4.72;;;16.40;99.90;;;;;;5075522;28;20057;-67
2022/06/16 03:55:45;;;;;;;6.10;4.88;;;16.40;99.90;;;;;;5078489;28;20025;-67
2022/06/16 03:58:12;;;;;;;5.55;4.47;;;16.30;99.90;;;;;;5079440;28;20067;-67
2022/06/16 04:00:37;;;;;;;8.15;5.05;;;16.40;99.90;;;;;;5079510;28;20036;-67
2022/06/16 04:05:54;;;;;;;6.18;5.22;;;16.40;99.90;;;;;;5089802;28;20101;-66
2022/06/16 04:08:21;;;;;;;7.57;5.13;;;16.40;99.90;;;;;;5062860;28;20119;-67
2022/06/16 04:10:49;;;;;;;11.00;5.60;;;16.50;99.90;;;;;;5079703;28;20029;-67
2022/06/16 04:13:16;;;;;;;6.97;5.30;;;16.50;99.90;;;;;;5080305;28;20116;-67
2022/06/16 04:15:42;;;;;;;9.85;5.22;;;16.50;99.90;;;;;;5079247;28;20036;-67
2022/06/16 04:18:10;;;;;;;7.30;4.57;;;16.60;99.90;;;;;;5079153;28;20037;-67
2022/06/16 04:20:38;;;;;;;8.00;5.18;;;16.50;99.90;;;;;;5079450;28;20123;-67
2022/06/16 04:23:15;;;;;;;6.28;4.65;;;16.50;99.90;;;;;;5079179;28;20270;-67
2022/06/16 04:25:42;;;;;;;6.00;5.28;;;16.50;99.90;;;;;;5079157;28;20063;-67
2022/06/16 04:28:15;;;;;;;;;;;16.60;99.90;;;;;;5079514;28;20035;-67
2022/06/16 04:30:47;;;;;;;7.17;4.80;;;16.70;99.90;;;;;;5079090;28;19944;-67
2022/06/16 04:33:13;;;;;;;7.72;5.03;;;16.80;99.90;;;;;;5078875;28;20442;-67
2022/06/16 04:35:40;;;;;;;10.05;4.97;;;16.90;99.90;;;;;;5079784;28;20071;-67
2022/06/16 04:38:08;;;;;;;6.57;5.18;;;16.90;99.90;;;;;;5078825;28;20078;-67
2022/06/16 04:40:36;;;;;;;6.72;4.57;;;16.90;99.90;;;;;;5078765;28;20032;-66
2022/06/16 04:43:14;;;;;;;7.18;5.38;;;16.90;99.90;;;;;;5078829;28;20387;-67
2022/06/16 04:45:41;;;;;;;6.82;4.82;;;16.90;99.90;;;;;;5078784;28;20024;-67
2022/06/16 04:48:08;;;;;;;7.20;4.97;;;16.90;99.90;;;;;;5078704;28;20472;-67
2022/06/16 04:50:36;;;;;;;5.40;4.78;;;16.90;99.90;;;;;;5078700;28;20021;-67
2022/06/16 04:53:03;;;;;;;6.28;5.07;;;16.90;99.90;;;;;;5078442;28;20048;-67
2022/06/16 04:55:35;;;;;;;7.60;5.13;;;16.90;99.90;;;;;;5078804;28;20032;-66
2022/06/16 04:58:24;;;;;;;8.68;5.57;;;17.00;99.90;;;;;;5078529;28;20043;-66
2022/06/16 05:01:04;;;;;;;7.22;5.35;;;17.00;99.90;;;;;;5079233;28;20085;-67
2022/06/16 05:03:48;;;;;;;6.50;5.18;;;17.00;99.90;;;;;;5078450;28;20043;-67
2022/06/16 05:06:23;;;;;;;6.05;5.43;;;17.10;99.90;;;;;;5077521;28;20346;-66
2022/06/16 05:08:58;;;;;;;6.47;5.32;;;17.20;99.90;;;;;;5079399;28;20028;-67
2022/06/16 05:12:03;;;;;;;5.88;5.30;;;17.20;99.90;;;;;;5084675;28;20438;-67
2022/06/16 05:14:48;;;;;;;6.72;5.15;;;17.40;99.90;;;;;;5079103;28;20327;-67
2022/06/16 05:17:36;;;;;;;9.13;5.35;;;17.70;99.90;;;;;;5078903;28;20043;-66
2022/06/16 05:20:37;;;;;;;7.95;5.85;;;17.80;99.90;;;;;;5077386;28;20033;-67
2022/06/16 05:23:11;;;;;;;6.07;5.37;;;17.80;99.90;;;;;;5078723;28;20109;-66
2022/06/16 05:25:57;;;;;;;7.18;5.18;;;17.90;99.90;;;;;;5077982;28;20089;-67
2022/06/16 05:28:42;;;;;;;5.88;5.22;;;17.90;99.90;;;;;;5078709;28;20289;-67
2022/06/16 05:31:27;;;;;;;9.40;5.57;;;17.80;99.90;;;;;;5079066;28;20059;-67
2022/06/16 05:34:16;;;;;;;11.93;5.18;;;17.90;99.90;;;;;;5078312;28;20052;-66
2022/06/16 05:37:08;;;;;;;9.07;5.60;;;17.90;99.90;;;;;;5077962;28;20095;-67
2022/06/16 05:40:10;;;;;;;7.97;5.50;;;17.90;99.90;;;;;;5077743;28;20048;-66
2022/06/16 05:43:02;;;;;;;;;;;18.00;99.90;;;;;;5078007;28;20033;-68
2022/06/16 05:46:05;;;;;;;6.22;5.22;;;18.10;99.90;;;;;;5065800;28;20010;-67
2022/06/16 05:48:38;;;;;;;8.05;5.38;;;18.20;99.90;;;;;;5077562;28;20035;-67
2022/06/16 05:51:11;;;;;;;7.32;5.18;;;18.20;99.90;;;;;;5077754;28;20028;-67
2022/06/16 05:53:47;;;;;;;7.15;5.00;;;18.30;99.90;;;;;;5077737;28;20384;-66
2022/06/16 05:56:17;;;;;;;8.20;4.97;;;18.30;99.90;;;;;;5077320;28;20039;-67
2022/06/16 05:58:44;;;;;;;6.10;5.05;;;18.40;99.90;;;;;;5077324;28;20040;-66
2022/06/16 06:01:11;;;;;;;6.78;5.30;;;18.40;99.90;;;;;;5077892;28;20029;-66
2022/06/16 06:03:39;;;;;;;7.43;5.32;;;18.60;99.90;;;;;;5077231;28;20349;-66
2022/06/16 06:06:06;;;;;;;8.52;5.20;;;18.50;99.90;;;;;;5077133;28;20020;-66
2022/06/16 06:16:56;;;;;;;5.38;4.63;;;18.70;99.90;;;;;;5076925;28;20028;-66
2022/06/16 06:19:25;;;;;;;5.35;4.20;;;18.80;99.90;;;;;;5077470;28;20036;-66
2022/06/16 06:21:58;;;;;;;8.32;5.00;;;18.80;99.90;;;;;;5076875;28;20182;-67
2022/06/16 06:24:25;;;;;;;;;;;18.90;99.90;;;;;;5077527;28;20035;-66
2022/06/16 06:26:52;;;;;;;7.72;4.65;;;18.90;99.90;;;;;;5076714;28;19908;-65
2022/06/16 06:29:18;;;;;;;10.15;4.82;;;19.10;99.90;;;;;;5060194;28;20071;-65
2022/06/16 06:31:45;;;;;;;5.97;4.93;;;19.00;99.90;;;;;;5077435;28;20036;-65
2022/06/16 06:34:11;;;;;;;5.03;4.35;;;19.10;99.90;;;;;;5077363;28;20111;-65
2022/06/16 06:36:37;;;;;;;7.63;4.65;;;19.10;99.90;;;;;;5077251;28;20439;-65
2022/06/16 06:39:03;;;;;;;5.25;4.47;;;19.20;99.90;;;;;;5076528;28;20028;-65
2022/06/16 06:41:29;;;;;;;7.00;4.60;;;19.30;99.90;;;;;;5077521;28;20139;-66
2022/06/16 06:43:54;;;;;;;8.13;5.30;;;19.40;99.90;;;;;;5077433;28;20028;-65
2022/06/16 06:46:20;;;;;;;8.85;5.30;;;19.50;99.90;;;;;;5077365;28;20288;-64
2022/06/16 06:48:46;;;;;;;8.32;5.22;;;19.50;99.90;;;;;;5077243;28;20039;-65
2022/06/16 06:51:13;;;;;;;8.10;5.47;;;19.40;99.90;;;;;;5077514;28;20032;-65
2022/06/16 06:53:39;;;;;;;5.93;5.25;;;19.50;99.90;;;;;;5076997;28;20063;-65
2022/06/16 06:56:05;;;;;;;7.32;4.80;;;19.60;99.90;;;;;;5077662;28;20376;-65
2022/06/16 06:58:32;;;;;;;6.70;4.50;;;19.70;99.90;;;;;;5077605;28;20036;-66
2022/06/16 07:01:01;;;;;;;6.80;5.32;;;19.70;99.90;;;;;;5076967;28;20040;-65
2022/06/16 07:03:29;;;;;;;8.05;5.50;;;19.90;99.90;;;;;;5077031;28;20169;-65
2022/06/16 07:05:55;;;;;;;7.07;4.53;;;19.90;99.90;;;;;;5077254;28;20380;-65
2022/06/16 07:08:21;;;;;;;4.88;4.28;;;19.90;99.90;;;;;;5076976;28;20020;-65
2022/06/16 07:10:47;;;;;;;8.93;5.15;;;19.90;99.90;;;;;;5077084;28;20028;-65
2022/06/16 07:13:14;;;;;;;4.85;4.18;;;19.90;99.90;;;;;;5076990;28;20035;-64
2022/06/16 07:15:40;;;;;;;6.07;4.60;;;20.00;99.90;;;;;;5076906;28;20044;-64
2022/06/16 07:18:06;;;;;;;6.55;5.25;;;20.00;99.90;;;;;;5076225;28;20312;-65
2022/06/16 07:20:33;;;;;;;9.50;5.55;;;20.10;99.90;;;;;;5075958;28;20122;-65
2022/06/16 07:22:59;;;;;;;7.00;5.10;;;20.20;99.90;;;;;;5076666;28;20489;-67
2022/06/16 07:25:25;;;;;;;6.90;4.50;;;20.10;99.90;;;;;;5076779;28;20028;-66
2022/06/16 07:27:53;;;;;;;9.75;5.20;;;20.10;99.90;;;;;;5076837;28;20407;-66
2022/06/16 07:30:20;;;;;;;5.40;4.85;;;20.10;99.90;;;;;;5078847;28;20052;-65
2022/06/16 07:32:47;;;;;;;6.97;5.03;;;20.30;99.90;;;;;;5080917;28;20056;-65
2022/06/16 07:35:17;;;;;;;8.68;4.53;;;20.50;99.90;;;;;;5081121;28;20381;-65
2022/06/16 07:37:43;;;;;;;7.00;5.20;;;20.50;99.90;;;;;;5080132;28;20320;-66
2022/06/16 07:40:11;;;;;;;9.77;5.00;;;20.30;99.90;;;;;;5080688;28;20123;-65
2022/06/16 07:42:37;;;;;;;7.70;4.90;;;20.40;99.90;;;;;;5080772;28;20039;-65
2022/06/16 07:45:03;;;;;;;5.82;4.80;;;20.50;99.90;;;;;;5080717;28;20024;-66
2022/06/16 07:47:29;;;;;;;6.00;4.20;;;20.70;99.90;;;;;;5079957;28;20331;-66
2022/06/16 07:49:55;;;;;;;6.25;3.97;;;20.70;99.90;;;;;;5080673;28;20028;-66
2022/06/16 07:52:21;;;;;;;5.47;4.55;;;20.70;99.90;;;;;;5080517;28;20125;-65
2022/06/16 07:54:49;;;;;;;5.95;4.40;;;20.80;99.90;;;;;;5080499;28;20037;-66
2022/06/16 07:57:14;;;;;;;5.13;4.10;;;20.80;99.90;;;;;;5080388;28;20020;-65
2022/06/16 07:59:40;;;;;;;7.10;4.50;;;20.80;99.90;;;;;;5080379;28;20047;-66
2022/06/16 08:02:07;;;;;;;4.65;4.10;;;20.90;99.90;;;;;;5080337;28;20040;-66
2022/06/16 08:04:32;;;;;;;6.63;4.30;;;21.00;99.90;;;;;;5080285;28;20096;-66
2022/06/16 08:07:00;;;;;;;4.80;3.70;;;21.10;99.90;;;;;;5079436;28;20061;-66
2022/06/16 08:09:28;;;;;;;6.20;4.07;;;21.10;99.90;;;;;;5079481;28;20045;-66
2022/06/16 08:12:09;;;;;;;7.95;3.63;;;21.20;99.90;;;;;;5079987;28;20185;-65
2022/06/16 08:14:39;;;;;;;5.90;3.28;;;21.40;99.90;;;;;;5080419;28;20039;-65
2022/06/16 08:17:18;;;;;;;4.03;2.65;;;21.40;99.90;;;;;;5080040;28;20031;-66
2022/06/16 08:19:45;;;;;;;3.25;2.90;;;21.60;99.90;;;;;;5079945;28;20123;-66
2022/06/16 08:22:12;;;;;;;3.30;2.45;;;21.60;99.90;;;;;;5079962;28;20024;-65
2022/06/16 08:24:38;;;;;;;5.93;3.05;;;21.60;99.90;;;;;;5079922;28;20126;-66
2022/06/16 08:27:05;;;;;;;4.78;2.63;;;21.40;99.90;;;;;;5079797;28;20032;-66
2022/06/16 08:29:32;;;;;;;5.25;3.08;;;21.50;99.90;;;;;;5079918;28;20105;-68
2022/06/16 08:31:59;;;;;;;5.20;2.75;;;21.70;99.90;;;;;;5080169;28;20033;-66
2022/06/16 08:34:25;;;;;;;4.32;2.20;;;21.80;99.90;;;;;;5079743;28;20108;-66
2022/06/16 08:36:51;;;;;;;6.43;2.78;;;21.80;99.90;;;;;;5079675;28;20033;-65
2022/06/16 08:39:17;;;;;;;4.57;2.47;;;21.80;99.90;;;;;;5079623;28;20029;-67
2022/06/16 08:41:50;;;;;;;4.35;2.55;;;21.70;99.90;;;;;;5078298;28;20028;-66
2022/06/16 08:44:40;;;;;;;6.03;2.33;;;21.60;99.90;;;;;;5079554;28;20049;-66
2022/06/16 08:47:18;;;;;;;3.25;2.10;;;21.60;99.90;;;;;;5079547;28;20103;-66
2022/06/16 08:50:02;;;;;;;3.47;2.40;;;21.80;99.90;;;;;;5079778;28;20391;-66
2022/06/16 08:52:40;;;;;;;8.93;2.40;;;21.80;99.90;;;;;;5079195;28;20080;-68
2022/06/16 08:55:21;;;;;;;6.60;2.33;;;22.00;99.90;;;;;;5079598;28;20086;-67
2022/06/16 08:58:13;;;;;;;3.13;2.00;;;22.30;99.90;;;;;;5079313;28;20040;-66
2022/06/16 09:00:45;;;;;;;3.35;2.13;;;22.30;99.90;;;;;;5079206;28;20046;-64
2022/06/16 09:03:28;;;;;;;2.10;1.90;;;22.50;99.90;;;;;;5079220;28;20016;-65
2022/06/16 09:05:59;;;;;;;3.33;2.40;;;22.50;99.90;;;;;;5079185;28;20021;-65
2022/06/16 09:08:43;;;;;;;4.50;2.40;;;22.40;99.90;;;;;;5079230;28;20360;-66
2022/06/16 09:11:24;;;;;;;3.00;2.08;;;22.50;99.90;;;;;;5079100;28;20162;-65
2022/06/16 09:14:19;;;;;;;3.72;1.95;;;22.40;99.90;;;;;;5079020;28;20036;-65
2022/06/16 09:17:05;;;;;;;3.67;1.65;;;22.50;99.90;;;;;;5079416;28;20406;-67
2022/06/16 09:19:45;;;;;;;3.40;2.00;;;22.60;99.90;;;;;;5077947;28;20028;-66
2022/06/16 09:22:30;;;;;;;2.47;1.88;;;22.60;99.90;;;;;;5079081;28;20037;-67
2022/06/16 09:25:14;;;;;;;2.65;1.50;;;22.70;99.90;;;;;;5078902;28;20352;-66
2022/06/16 09:27:49;;;;;;;5.47;1.85;;;22.70;99.90;;;;;;5078902;28;20029;-67
2022/06/16 09:30:20;;;;;;;3.55;1.75;;;22.80;99.90;;;;;;5078731;28;20109;-65
2022/06/16 09:32:54;;;;;;;2.33;1.52;;;22.90;99.90;;;;;;5078943;28;20458;-66
2022/06/16 09:35:34;;;;;;;6.30;1.95;;;22.90;99.90;;;;;;5078549;28;20041;-67
2022/06/16 09:38:17;;;;;;;3.90;1.90;;;22.90;99.90;;;;;;5078469;28;20032;-66
2022/06/16 09:40:51;;;;;;;3.15;1.70;;;22.80;99.90;;;;;;5077663;28;20300;-65
2022/06/16 09:43:35;;;;;;;7.18;2.05;;;22.80;99.90;;;;;;5078415;28;20055;-66
2022/06/16 09:46:14;;;;;;;3.17;1.67;;;22.90;99.90;;;;;;5078371;28;20040;-67
2022/06/16 09:49:26;;;;;;;2.88;1.73;;;23.10;99.90;;;;;;5078311;28;20094;-66
2022/06/16 09:52:02;;;;;;;4.95;2.03;;;23.20;99.90;;;;;;5077570;28;20063;-67
2022/06/16 09:54:49;;;;;;;3.70;1.77;;;23.30;99.90;;;;;;5078088;28;20024;-65
2022/06/16 09:57:21;;;;;;;3.67;1.85;;;23.50;99.90;;;;;;5078405;28;20073;-67
2022/06/16 10:00:09;;;;;;;5.25;1.95;;;23.60;99.90;;;;;;5078210;28;20292;-66
2022/06/16 10:03:00;;;;;;;4.80;1.77;;;23.60;99.90;;;;;;5077913;28;20025;-66
2022/06/16 10:05:32;;;;;;;4.75;2.13;;;23.80;99.90;;;;;;5077982;28;20047;-65
2022/06/16 10:08:04;;;;;;;4.10;1.98;;;24.00;99.90;;;;;;5078111;28;20400;-66
2022/06/16 10:10:35;;;;;;;3.70;1.50;;;24.00;99.90;;;;;;5077904;28;20028;-66
2022/06/16 10:13:31;;;;;;;7.30;2.22;;;23.70;99.90;;;;;;5077777;28;20078;-66
2022/06/16 10:16:19;;;;;;;5.97;1.55;;;23.90;99.90;;;;;;5075079;28;20048;-66
2022/06/16 10:18:46;;;;;;;3.58;1.60;;;24.00;99.90;;;;;;5077645;28;20182;-68
2022/06/16 10:21:15;;;;;;;2.95;1.58;;;24.20;99.90;;;;;;5077453;28;20032;-66
2022/06/16 10:23:54;;;;;;;3.53;1.40;;;24.40;99.90;;;;;;5077546;28;20418;-66
2022/06/16 10:26:20;;;;;;;3.67;1.75;;;24.60;99.90;;;;;;5077512;28;20035;-68
2022/06/16 10:29:01;;;;;;;3.58;1.70;;;24.80;99.90;;;;;;5077565;28;20024;-66
2022/06/16 10:31:40;;;;;;;4.68;1.63;;;24.80;99.90;;;;;;5077452;28;20035;-66
2022/06/16 10:34:24;;;;;;;2.83;1.67;;;24.90;99.90;;;;;;5078155;28;20039;-65
2022/06/16 10:36:58;;;;;;;2.45;1.55;;;24.80;99.90;;;;;;5077327;28;20162;-65
2022/06/16 10:39:34;;;;;;;3.95;1.88;;;24.80;99.90;;;;;;5077284;28;20448;-67
2022/06/16 10:42:18;;;;;;;5.78;1.70;;;25.00;99.90;;;;;;5077723;28;20036;-65
2022/06/16 10:44:56;;;;;;;3.00;1.50;;;25.30;99.90;;;;;;5077258;28;20047;-66
2022/06/16 10:47:30;;;;;;;14.77;3.95;;;25.40;99.90;;;;;;5077057;28;20262;-66
2022/06/16 10:49:56;;;;;;;4.65;2.10;;;25.40;99.90;;;;;;5077192;28;20056;-66
2022/06/16 10:52:35;;;;;;;3.67;1.65;;;25.40;99.90;;;;;;5076339;28;20151;-67
2022/06/16 10:55:10;;;;;;;5.20;1.80;;;24.90;99.90;;;;;;5077404;28;20062;-65
2022/06/16 10:58:05;;;;;;;3.60;1.77;;;24.80;99.90;;;;;;5077040;28;20135;-67
2022/06/16 11:00:34;;;;;;;5.65;2.03;;;25.20;99.90;;;;;;5076763;28;20047;-66
2022/06/16 11:03:13;;;;;;;5.80;1.90;;;25.10;99.90;;;;;;5077038;28;20025;-65
2022/06/16 11:05:52;;;;;;;6.18;2.08;;;24.80;99.90;;;;;;5076481;28;20031;-65
2022/06/16 11:08:20;;;;;;;7.38;2.10;;;24.90;99.90;;;;;;5076181;28;20084;-65
2022/06/16 11:10:58;;;;;;;4.50;1.67;;;25.50;99.90;;;;;;5076915;28;20363;-65
2022/06/16 11:13:36;;;;;;;5.65;1.95;;;27.50;98.30;;;;;;5075932;28;20036;-67
2022/06/16 11:16:08;;;;;;;2.53;1.80;;;29.30;95.10;;;;;;5076669;28;20032;-67
2022/06/16 11:18:37;;;;;;;7.78;2.10;;;29.30;92.20;;;;;;5076791;28;20066;-67
2022/06/16 11:21:18;;;;;;;4.90;1.65;;;28.40;94.00;;;;;;5076666;28;20025;-67
2022/06/16 11:23:50;;;;;;;6.15;1.60;;;30.30;90.60;;;;;;5076940;28;20071;-67
2022/06/16 11:26:25;;;;;;;4.32;1.40;;;31.70;85.10;;;;;;5076011;28;20071;-66
2022/06/16 11:28:57;;;;;;;5.85;2.05;;;32.80;77.10;;;;;;5076868;28;20464;-66
2022/06/16 11:31:34;;;;;;;3.42;1.58;;;33.00;75.00;;;;;;5075972;28;20036;-65
2022/06/16 11:34:20;;;;;;;25.95;8.15;;;32.70;72.10;;;;;;5076753;28;20119;-67
2022/06/16 11:36:53;;;;;;;10.93;2.42;;;31.10;75.50;;;;;;5059466;28;20103;-66
2022/06/16 11:39:34;;;;;;;4.30;1.58;;;31.20;75.10;;;;;;5075862;28;20028;-65
2022/06/16 11:42:00;;;;;;;4.90;1.85;;;32.40;70.90;;;;;;5076558;28;20265;-66
2022/06/16 11:44:44;;;;;;;3.42;1.70;;;32.90;70.10;;;;;;5076726;28;20385;-65
2022/06/16 11:47:31;;;;;;;3.58;1.90;;;33.90;65.10;;;;;;5076635;28;20102;-69
2022/06/16 11:50:15;;;;;;;3.22;1.80;;;34.40;60.90;;;;;;5076583;28;20089;-66
2022/06/16 11:52:47;;;;;;;4.88;1.88;;;35.10;61.40;;;;;;5076465;28;20045;-67
2022/06/16 11:55:40;;;;;;;4.60;1.50;;;36.20;57.80;;;;;;5076482;28;20431;-65
2022/06/16 11:58:16;;;;;;;4.70;1.67;;;37.40;55.10;;;;;;5076541;28;20020;-67
2022/06/16 12:01:00;;;;;;;3.90;1.60;;;37.30;53.50;;;;;;5076427;28;20092;-65
2022/06/16 12:03:41;;;;;;;4.53;1.63;;;38.00;52.40;;;;;;5077097;28;20121;-65
2022/06/16 12:06:51;;;;;;;5.00;1.40;;;38.50;50.60;;;;;;5076674;28;20356;-65
2022/06/16 12:09:35;;;;;;;3.78;1.42;;;39.10;50.20;;;;;;5075665;28;20044;-65
2022/06/16 12:12:03;;;;;;;3.80;1.52;;;39.70;47.40;;;;;;5076283;28;20111;-65
2022/06/16 12:14:38;;;;;;;4.75;1.73;;;38.80;46.20;;;;;;5076250;28;20033;-65
2022/06/16 12:17:15;;;;;;;4.28;1.77;;;37.00;47.60;;;;;;5079565;28;20023;-65
2022/06/16 12:19:44;;;;;;;6.13;1.80;;;35.40;50.40;;;;;;5079922;28;20327;-67
2022/06/16 12:22:47;;;;;;;2.72;1.60;;;35.80;49.50;;;;;;5079910;28;20031;-66
2022/06/16 12:25:24;;;;;;;3.75;1.30;;;34.00;52.60;;;;;;5079508;28;20079;-66
2022/06/16 12:28:08;;;;;;;6.15;1.75;;;35.20;51.50;;;;;;5079845;28;20034;-66
2022/06/16 12:30:46;;;;;;;2.97;1.60;;;37.00;48.80;;;;;;5080099;28;20331;-67
2022/06/16 12:33:23;;;;;;;3.80;1.50;;;38.00;47.70;;;;;;5079028;28;20056;-65
2022/06/16 12:36:18;;;;;;;4.43;1.52;;;38.90;45.80;;;;;;5079139;28;20041;-67
2022/06/16 12:38:54;;;;;;;4.20;1.75;;;39.30;45.00;;;;;;5079448;28;20282;-66
2022/06/16 12:41:32;;;;;;;2.85;1.63;;;38.90;44.20;;;;;;5079633;28;20040;-66
2022/06/16 12:44:11;;;;;;;3.50;1.40;;;39.20;44.10;;;;;;5079262;28;20292;-65
2022/06/16 12:46:55;;;;;;;3.28;1.60;;;39.40;44.20;;;;;;5079625;28;20036;-66
2022/06/16 12:49:29;;;;;;;3.55;1.40;;;39.50;42.80;;;;;;5079487;28;20032;-66
2022/06/16 12:52:00;;;;;;;4.05;1.70;;;39.70;42.80;;;;;;5079260;28;20056;-66
2022/06/16 12:54:36;;;;;;;;;;;40.60;42.50;;;;;;5079758;28;20392;-65
2022/06/16 12:57:11;;;;;;;2.70;1.77;;;41.50;41.20;;;;;;5079558;28;20283;-66
2022/06/16 12:59:59;;;;;;;2.78;1.30;;;41.90;40.00;;;;;;5079718;28;20040;-66
2022/06/16 13:02:30;;;;;;;3.67;1.52;;;41.60;39.90;;;;;;5079771;28;20048;-67
2022/06/16 13:05:00;;;;;;;4.80;1.98;;;41.30;39.10;;;;;;5079304;28;20028;-65
2022/06/16 13:07:29;;;;;;;3.47;1.73;;;41.90;38.70;;;;;;5079159;28;20029;-66
2022/06/16 13:09:55;;;;;;;3.40;1.92;;;41.90;39.10;;;;;;5079057;28;20028;-66
2022/06/16 13:12:25;;;;;;;2.65;1.42;;;40.60;39.70;;;;;;5079053;28;20097;-66
2022/06/16 13:14:57;;;;;;;4.13;1.80;;;40.20;40.10;;;;;;5079426;28;20384;-66
2022/06/16 13:17:27;;;;;;;2.05;1.40;;;41.60;38.70;;;;;;5078951;28;20033;-66
2022/06/16 13:20:23;;;;;;;2.58;1.73;;;41.80;38.30;;;;;;5078865;28;20082;-65
2022/06/16 13:22:58;;;;;;;3.03;1.45;;;40.90;39.10;;;;;;5078785;28;20472;-65
2022/06/16 13:25:50;;;;;;;6.03;1.70;;;42.10;38.80;;;;;;5079205;28;20024;-67
2022/06/16 13:28:18;;;;;;;2.80;1.40;;;41.30;38.00;;;;;;5060523;28;20207;-67
2022/06/16 13:31:12;;;;;;;2.90;1.58;;;40.90;39.00;;;;;;5078728;28;20052;-67
2022/06/16 13:33:49;;;;;;;2.88;1.25;;;41.20;38.60;;;;;;5078052;28;20029;-67
2022/06/16 13:36:17;;;;;;;3.15;1.60;;;41.90;38.40;;;;;;5078500;28;20044;-67
2022/06/16 13:38:46;;;;;;;4.93;1.67;;;41.90;38.90;;;;;;5078489;28;20086;-67
2022/06/16 13:41:30;;;;;;;3.13;1.60;;;40.90;38.00;;;;;;5078350;28;20093;-67
2022/06/16 13:44:16;;;;;;;2.10;1.77;;;39.80;40.00;;;;;;5077692;28;20025;-68
2022/06/16 13:46:58;;;;;;;2.85;1.30;;;40.00;39.10;;;;;;5078675;28;20028;-67
2022/06/16 13:49:53;;;;;;;5.65;1.70;;;41.80;38.40;;;;;;5078305;28;20020;-65